Time;durP1;ratioP1;P1;durP2;ratioP2;P2;SDS_P1;SDS_P2;PMS_P1;PMS_P2;Temp;Humidity;BMP_temperature;BMP_pressure;BME280_temperature;BME280_humidity;BME280_pressure;Samples;Min_cycle;Max_cycle;Signal;HPM_P1;HPM_P2
2022/10/16 00:02:25;;;;;;;1.33;0.70;;;16.80;99.90;;;;;;5034993;28;20203;-69
2022/10/16 00:04:54;;;;;;;0.60;0.60;;;16.90;99.90;;;;;;5047428;28;20269;-70
2022/10/16 00:07:21;;;;;;;1.03;0.73;;;16.80;99.90;;;;;;5039772;28;20266;-69
2022/10/16 00:09:48;;;;;;;0.57;0.57;;;16.90;99.90;;;;;;5043966;28;20207;-70
2022/10/16 00:12:15;;;;;;;0.57;0.57;;;16.80;99.90;;;;;;5039533;28;20236;-68
2022/10/16 00:14:43;;;;;;;0.43;0.43;;;16.80;99.90;;;;;;5042396;28;20260;-69
2022/10/16 00:17:10;;;;;;;0.77;0.60;;;16.90;99.90;;;;;;5033995;28;20224;-68
2022/10/16 00:19:37;;;;;;;0.80;0.60;;;16.90;99.90;;;;;;5033258;28;20201;-68
2022/10/16 00:22:04;;;;;;;1.17;0.70;;;16.90;99.90;;;;;;5033258;28;20575;-68
2022/10/16 00:24:31;;;;;;;0.50;0.50;;;16.80;99.90;;;;;;5033518;28;20229;-69
2022/10/16 00:26:57;;;;;;;0.80;0.80;;;16.80;99.90;;;;;;5033252;28;20587;-69
2022/10/16 00:29:24;;;;;;;0.60;0.60;;;17.00;99.90;;;;;;5033416;28;20299;-69
2022/10/16 00:31:52;;;;;;;0.60;0.60;;;16.80;99.90;;;;;;5033165;28;20201;-69
2022/10/16 00:34:19;;;;;;;0.70;0.70;;;16.90;99.90;;;;;;5039913;28;20292;-69
2022/10/16 00:36:46;;;;;;;1.43;0.70;;;17.00;99.90;;;;;;5035004;28;20670;-69
2022/10/16 00:39:13;;;;;;;0.50;0.50;;;16.80;99.90;;;;;;5036683;28;20227;-68
2022/10/16 00:41:40;;;;;;;0.77;0.40;;;16.90;99.90;;;;;;5033995;28;20238;-68
2022/10/16 00:44:39;;;;;;;1.57;1.07;;;16.80;99.90;;;;;;5037804;28;20650;-69
2022/10/16 00:47:10;;;;;;;0.70;0.70;;;16.80;99.90;;;;;;5027108;28;20229;-68
2022/10/16 00:49:37;;;;;;;0.73;0.73;;;16.80;99.90;;;;;;5033493;28;20227;-68
2022/10/16 00:52:04;;;;;;;0.83;0.57;;;16.80;99.90;;;;;;5034016;28;20272;-68
2022/10/16 00:54:32;;;;;;;0.73;0.73;;;16.80;99.90;;;;;;5034098;28;20201;-68
2022/10/16 00:57:01;;;;;;;0.80;0.60;;;16.80;99.90;;;;;;5032653;28;20229;-67
2022/10/16 00:59:30;;;;;;;0.70;0.70;;;16.80;99.90;;;;;;5027730;28;20205;-69
2022/10/16 01:01:58;;;;;;;0.40;0.40;;;16.80;99.90;;;;;;5029322;28;20208;-68
2022/10/16 01:04:29;;;;;;;0.50;0.50;;;16.80;99.90;;;;;;5031129;28;20208;-69
2022/10/16 01:07:03;;;;;;;0.53;0.53;;;16.80;99.90;;;;;;5027782;28;20326;-68
2022/10/16 01:09:36;;;;;;;0.60;0.60;;;16.80;99.90;;;;;;5028906;28;20299;-69
2022/10/16 01:12:10;;;;;;;1.27;0.70;;;16.80;99.90;;;;;;5023955;28;20197;-69
2022/10/16 01:14:44;;;;;;;1.57;0.60;;;16.80;99.90;;;;;;5027243;28;20274;-69
2022/10/16 01:17:15;;;;;;;0.67;0.67;;;16.90;99.90;;;;;;5030962;28;20698;-67
2022/10/16 01:20:02;;;;;;;0.67;0.50;;;16.90;99.90;;;;;;5030241;28;20242;-69
2022/10/16 01:22:38;;;;;;;1.23;0.87;;;16.90;99.90;;;;;;5031602;28;20208;-68
2022/10/16 01:25:10;;;;;;;0.57;0.57;;;16.80;99.90;;;;;;5030104;28;20202;-68
2022/10/16 01:27:41;;;;;;;2.10;0.60;;;16.80;99.90;;;;;;5031585;28;20236;-68
2022/10/16 01:30:13;;;;;;;1.20;1.00;;;16.80;99.90;;;;;;5032237;28;20207;-68
2022/10/16 01:32:46;;;;;;;0.40;0.37;;;16.80;99.90;;;;;;5031587;28;20247;-70
2022/10/16 01:35:21;;;;;;;0.43;0.43;;;16.80;99.90;;;;;;5028268;28;20266;-70
2022/10/16 01:37:52;;;;;;;0.80;0.60;;;16.80;99.90;;;;;;5028738;28;20242;-68
2022/10/16 01:40:21;;;;;;;1.27;0.80;;;16.80;99.90;;;;;;5030653;28;20203;-68
2022/10/16 01:42:56;;;;;;;0.77;0.40;;;16.70;99.90;;;;;;5025687;28;20219;-69
2022/10/16 01:45:22;;;;;;;2.67;0.80;;;16.80;99.90;;;;;;5031801;28;20200;-70
2022/10/16 01:47:51;;;;;;;1.03;0.50;;;16.70;99.90;;;;;;5029618;28;20657;-69
2022/10/16 01:50:20;;;;;;;0.63;0.60;;;16.70;99.90;;;;;;5031729;28;20205;-69
2022/10/16 01:52:52;;;;;;;0.53;0.50;;;16.70;99.90;;;;;;5031114;28;20702;-68
2022/10/16 01:55:23;;;;;;;0.73;0.73;;;16.70;99.90;;;;;;5031715;28;20211;-68
2022/10/16 01:57:54;;;;;;;1.80;0.70;;;16.70;99.90;;;;;;5031429;28;20221;-68
2022/10/16 02:00:23;;;;;;;0.60;0.60;;;16.70;99.90;;;;;;5031461;28;20571;-67
2022/10/16 02:02:54;;;;;;;0.80;0.80;;;16.70;99.90;;;;;;5030925;28;20201;-68
2022/10/16 02:05:26;;;;;;;0.53;0.53;;;16.70;99.90;;;;;;5031498;28;20204;-67
2022/10/16 02:07:53;;;;;;;0.83;0.67;;;16.80;99.90;;;;;;5031893;28;20217;-69
2022/10/16 02:10:20;;;;;;;0.70;0.47;;;16.80;99.90;;;;;;5031393;28;20216;-67
2022/10/16 02:12:54;;;;;;;0.73;0.73;;;16.70;99.90;;;;;;5031010;28;20208;-68
2022/10/16 02:15:21;;;;;;;0.77;0.63;;;16.70;99.90;;;;;;5029433;28;20215;-68
2022/10/16 02:17:47;;;;;;;0.70;0.70;;;16.70;99.90;;;;;;5031238;28;20232;-67
2022/10/16 02:20:14;;;;;;;0.40;0.40;;;16.80;99.90;;;;;;5031461;28;20196;-68
2022/10/16 02:22:44;;;;;;;0.40;0.40;;;16.60;99.90;;;;;;5030741;28;20205;-67
2022/10/16 02:25:17;;;;;;;0.60;0.60;;;16.70;99.90;;;;;;5031454;28;20760;-69
2022/10/16 02:27:50;;;;;;;0.50;0.50;;;16.70;99.90;;;;;;5030436;28;20666;-68
2022/10/16 02:30:22;;;;;;;1.23;0.57;;;16.70;99.90;;;;;;5029440;28;20208;-68
2022/10/16 02:32:50;;;;;;;0.57;0.57;;;16.70;99.90;;;;;;5035054;28;20283;-69
2022/10/16 02:35:19;;;;;;;0.57;0.53;;;16.70;99.90;;;;;;5035315;28;20200;-69
2022/10/16 02:37:47;;;;;;;1.03;0.60;;;16.60;99.90;;;;;;5035351;28;20229;-69
2022/10/16 02:40:14;;;;;;;0.87;0.70;;;16.60;99.90;;;;;;5038933;28;20204;-69
2022/10/16 02:42:42;;;;;;;0.60;0.60;;;16.60;99.90;;;;;;5035697;28;20200;-69
2022/10/16 02:45:11;;;;;;;2.17;0.73;;;16.60;99.90;;;;;;5038441;28;20207;-68
2022/10/16 02:47:39;;;;;;;0.67;0.60;;;16.60;99.90;;;;;;5038095;28;20339;-68
2022/10/16 02:50:07;;;;;;;0.77;0.60;;;16.60;99.90;;;;;;5034023;28;20211;-69
2022/10/16 02:52:33;;;;;;;0.60;0.60;;;16.50;99.90;;;;;;5035315;28;20204;-70
2022/10/16 02:55:00;;;;;;;0.60;0.60;;;16.50;99.90;;;;;;5035073;28;20291;-68
2022/10/16 02:57:27;;;;;;;0.40;0.40;;;16.50;99.90;;;;;;5026404;28;20225;-68
2022/10/16 02:59:54;;;;;;;0.63;0.63;;;16.60;99.90;;;;;;5034274;28;20208;-70
2022/10/16 03:02:21;;;;;;;0.63;0.60;;;16.50;99.90;;;;;;5034144;28;20205;-68
2022/10/16 03:04:49;;;;;;;0.87;0.50;;;16.60;99.90;;;;;;5034622;28;20663;-69
2022/10/16 03:07:16;;;;;;;0.60;0.60;;;16.40;99.90;;;;;;5034564;28;20231;-69
2022/10/16 03:09:43;;;;;;;0.87;0.80;;;16.50;99.90;;;;;;5034681;28;20252;-68
2022/10/16 03:12:11;;;;;;;0.67;0.67;;;16.40;99.90;;;;;;5034357;28;20208;-69
2022/10/16 03:14:39;;;;;;;0.63;0.63;;;16.60;99.90;;;;;;5034120;28;20240;-68
2022/10/16 03:17:06;;;;;;;0.50;0.50;;;16.40;99.90;;;;;;5034521;28;20236;-68
2022/10/16 03:19:33;;;;;;;0.70;0.60;;;16.30;99.90;;;;;;5034371;28;20667;-69
2022/10/16 03:22:01;;;;;;;0.80;0.80;;;16.50;99.90;;;;;;5034274;28;20208;-69
2022/10/16 03:24:28;;;;;;;1.30;0.47;;;16.30;99.90;;;;;;5034379;28;20211;-69
2022/10/16 03:26:55;;;;;;;1.03;0.70;;;16.40;99.90;;;;;;5034053;28;20224;-68
2022/10/16 03:29:22;;;;;;;0.97;0.67;;;16.30;99.90;;;;;;5034982;28;20299;-68
2022/10/16 03:31:49;;;;;;;0.50;0.50;;;16.30;99.90;;;;;;5034154;28;20215;-69
2022/10/16 03:34:16;;;;;;;0.60;0.60;;;16.30;99.90;;;;;;5034795;28;20209;-69
2022/10/16 03:36:43;;;;;;;1.53;0.90;;;16.30;99.90;;;;;;5034131;28;20220;-68
2022/10/16 03:39:11;;;;;;;0.60;0.60;;;16.30;99.90;;;;;;5034056;28;20212;-68
2022/10/16 03:41:38;;;;;;;1.33;0.40;;;16.30;99.90;;;;;;5033756;28;20208;-70
2022/10/16 03:44:04;;;;;;;0.77;0.60;;;16.40;99.90;;;;;;5034491;28;20201;-68
2022/10/16 03:46:31;;;;;;;0.83;0.70;;;16.30;99.90;;;;;;5011630;28;20243;-69
2022/10/16 03:48:58;;;;;;;1.20;0.70;;;16.30;99.90;;;;;;5033820;28;20227;-69
2022/10/16 03:51:25;;;;;;;0.70;0.70;;;16.30;99.90;;;;;;5033906;28;20251;-69
2022/10/16 03:53:52;;;;;;;0.70;0.70;;;16.30;99.90;;;;;;5033435;28;20299;-68
2022/10/16 03:56:21;;;;;;;0.70;0.70;;;16.30;99.90;;;;;;5033943;28;20220;-69
2022/10/16 03:58:47;;;;;;;0.83;0.50;;;16.30;99.90;;;;;;5035156;28;20428;-68
2022/10/16 04:01:14;;;;;;;0.87;0.60;;;16.30;99.90;;;;;;5033773;28;20204;-69
2022/10/16 04:03:41;;;;;;;0.70;0.70;;;16.30;99.90;;;;;;5033936;28;20205;-68
2022/10/16 04:06:08;;;;;;;0.77;0.70;;;16.30;99.90;;;;;;5034079;28;20205;-68
2022/10/16 04:08:36;;;;;;;0.60;0.60;;;16.40;99.90;;;;;;5033852;28;20311;-68
2022/10/16 04:11:03;;;;;;;0.63;0.63;;;16.20;99.90;;;;;;5031138;28;20716;-68
2022/10/16 04:13:32;;;;;;;0.50;0.50;;;16.20;99.90;;;;;;5035517;28;20236;-68
2022/10/16 04:15:58;;;;;;;0.60;0.60;;;16.20;99.90;;;;;;5037945;28;20219;-69
2022/10/16 04:18:26;;;;;;;0.50;0.50;;;16.20;99.90;;;;;;5037035;28;20617;-68
2022/10/16 04:20:53;;;;;;;0.80;0.80;;;16.20;99.90;;;;;;5035154;28;20231;-69
2022/10/16 04:23:20;;;;;;;0.50;0.50;;;16.20;99.90;;;;;;5033132;28;20205;-70
2022/10/16 04:25:47;;;;;;;0.60;0.60;;;16.20;99.90;;;;;;5032938;28;20205;-70
2022/10/16 04:28:14;;;;;;;0.93;0.63;;;16.20;99.90;;;;;;5032589;28;20231;-69
2022/10/16 04:30:42;;;;;;;0.40;0.40;;;16.20;99.90;;;;;;5034242;28;20197;-71
2022/10/16 04:33:10;;;;;;;0.57;0.57;;;16.50;99.90;;;;;;5033560;28;20210;-69
2022/10/16 04:35:37;;;;;;;0.80;0.80;;;16.30;99.90;;;;;;5036815;28;20212;-70
2022/10/16 04:38:03;;;;;;;0.70;0.70;;;16.30;99.90;;;;;;5039179;28;20231;-69
2022/10/16 04:40:32;;;;;;;0.70;0.70;;;16.30;99.90;;;;;;5032905;28;20200;-70
2022/10/16 04:42:59;;;;;;;0.67;0.60;;;16.40;99.90;;;;;;5032516;28;20266;-70
2022/10/16 04:45:26;;;;;;;0.40;0.40;;;16.30;99.90;;;;;;5033012;28;20200;-69
2022/10/16 04:47:57;;;;;;;1.10;0.80;;;16.20;99.90;;;;;;5032374;28;20223;-68
2022/10/16 04:50:24;;;;;;;0.53;0.50;;;16.20;99.90;;;;;;5031994;28;20201;-68
2022/10/16 04:52:51;;;;;;;2.10;0.70;;;16.30;99.90;;;;;;5031992;28;20201;-69
2022/10/16 04:55:18;;;;;;;1.30;0.60;;;16.20;99.90;;;;;;5032326;28;20207;-69
2022/10/16 04:57:45;;;;;;;0.93;0.77;;;16.20;99.90;;;;;;5032206;28;20252;-70
2022/10/16 05:00:12;;;;;;;0.50;0.50;;;16.20;99.90;;;;;;5032779;28;20200;-69
2022/10/16 05:02:39;;;;;;;0.73;0.70;;;16.20;99.90;;;;;;5032263;28;20201;-70
2022/10/16 05:05:08;;;;;;;1.40;0.67;;;16.20;99.90;;;;;;5032543;28;20203;-69
2022/10/16 05:07:35;;;;;;;0.57;0.57;;;16.20;99.90;;;;;;5032396;28;20224;-69
2022/10/16 05:10:02;;;;;;;1.40;0.53;;;16.20;99.90;;;;;;5033037;28;20197;-69
2022/10/16 05:12:28;;;;;;;1.23;0.63;;;16.30;99.90;;;;;;5032648;28;20379;-69
2022/10/16 05:14:58;;;;;;;0.83;0.77;;;16.30;99.90;;;;;;5035319;28;20205;-70
2022/10/16 05:17:25;;;;;;;0.60;0.60;;;16.30;99.90;;;;;;5043239;28;20220;-69
2022/10/16 05:19:51;;;;;;;0.83;0.83;;;16.40;99.90;;;;;;5041245;28;20205;-69
2022/10/16 05:22:20;;;;;;;0.80;0.63;;;16.30;99.90;;;;;;5040315;28;20232;-70
2022/10/16 05:24:46;;;;;;;0.60;0.60;;;16.30;99.90;;;;;;5037328;28;20205;-69
2022/10/16 05:27:18;;;;;;;0.43;0.43;;;16.50;99.90;;;;;;5034261;28;20229;-69
2022/10/16 05:29:46;;;;;;;0.50;0.50;;;16.60;99.90;;;;;;5033519;28;20211;-70
2022/10/16 05:32:13;;;;;;;0.93;0.70;;;16.30;99.90;;;;;;5033830;28;20595;-69
2022/10/16 05:34:40;;;;;;;0.63;0.50;;;16.40;99.90;;;;;;5031496;28;20211;-69
2022/10/16 05:37:07;;;;;;;0.50;0.47;;;16.40;99.90;;;;;;5031829;28;20675;-70
2022/10/16 05:39:36;;;;;;;1.47;0.80;;;16.30;99.90;;;;;;5032002;28;20294;-70
2022/10/16 05:42:03;;;;;;;0.37;0.37;;;16.30;99.90;;;;;;5031961;28;20251;-68
2022/10/16 05:44:30;;;;;;;0.50;0.50;;;16.30;99.90;;;;;;5032003;28;20660;-69
2022/10/16 05:46:57;;;;;;;0.70;0.70;;;16.40;99.90;;;;;;5032654;28;20243;-69
2022/10/16 05:49:24;;;;;;;0.53;0.53;;;16.40;99.90;;;;;;5031837;28;20201;-69
2022/10/16 05:51:50;;;;;;;0.60;0.60;;;16.40;99.90;;;;;;5031497;28;20200;-70
2022/10/16 05:54:17;;;;;;;0.60;0.60;;;16.40;99.90;;;;;;5032225;28;20227;-71
2022/10/16 05:56:45;;;;;;;1.30;0.67;;;16.40;99.90;;;;;;5031214;28;20931;-70
2022/10/16 05:59:12;;;;;;;0.57;0.47;;;16.40;99.90;;;;;;5030995;28;20663;-70
2022/10/16 06:01:39;;;;;;;0.40;0.40;;;16.50;99.90;;;;;;5030987;28;20211;-70
2022/10/16 06:04:06;;;;;;;1.27;0.90;;;16.40;99.90;;;;;;5034622;28;20287;-68
2022/10/16 06:06:33;;;;;;;0.93;0.80;;;16.50;99.90;;;;;;5028737;28;20196;-68
2022/10/16 06:09:00;;;;;;;0.60;0.60;;;16.40;99.90;;;;;;5041589;28;20209;-70
2022/10/16 06:11:28;;;;;;;0.70;0.70;;;16.30;99.90;;;;;;5043859;28;20217;-70
2022/10/16 06:13:58;;;;;;;1.07;0.60;;;16.40;99.90;;;;;;5043136;28;20215;-70
2022/10/16 06:16:26;;;;;;;0.87;0.83;;;16.20;99.90;;;;;;5037811;28;20589;-70
2022/10/16 06:18:53;;;;;;;0.60;0.60;;;16.20;99.90;;;;;;5042313;28;20216;-69
2022/10/16 06:21:22;;;;;;;1.40;0.77;;;16.20;99.90;;;;;;5036514;28;20211;-69
2022/10/16 06:23:49;;;;;;;1.47;0.80;;;16.20;99.90;;;;;;5036531;28;20359;-69
2022/10/16 06:26:20;;;;;;;0.60;0.60;;;16.40;99.90;;;;;;5034129;28;20201;-69
2022/10/16 06:28:47;;;;;;;1.13;0.97;;;16.30;99.90;;;;;;5028592;28;20642;-68
2022/10/16 06:31:16;;;;;;;0.90;0.80;;;16.20;99.90;;;;;;5034706;28;20205;-69
2022/10/16 06:33:45;;;;;;;0.97;0.80;;;16.20;99.90;;;;;;5038338;28;20288;-69
2022/10/16 06:36:14;;;;;;;0.90;0.90;;;16.20;99.90;;;;;;5037822;28;20640;-70
2022/10/16 06:38:41;;;;;;;0.73;0.70;;;16.20;99.90;;;;;;5034959;28;20232;-69
2022/10/16 06:41:12;;;;;;;0.57;0.57;;;16.10;99.90;;;;;;5034283;28;20204;-69
2022/10/16 06:43:39;;;;;;;1.03;1.00;;;16.30;99.90;;;;;;5031309;28;20291;-69
2022/10/16 06:46:07;;;;;;;0.60;0.60;;;16.30;99.90;;;;;;5034886;28;20227;-69
2022/10/16 06:48:36;;;;;;;0.80;0.80;;;16.50;99.90;;;;;;5035773;28;20251;-68
2022/10/16 06:51:05;;;;;;;0.70;0.70;;;16.30;99.90;;;;;;5033689;28;20209;-70
2022/10/16 06:53:33;;;;;;;0.93;0.80;;;16.30;99.90;;;;;;5035481;28;20206;-69
2022/10/16 06:56:07;;;;;;;0.60;0.60;;;16.40;99.90;;;;;;5035353;28;20211;-68
2022/10/16 06:58:34;;;;;;;0.60;0.60;;;16.40;99.90;;;;;;5034341;28;20224;-68
2022/10/16 07:01:01;;;;;;;0.70;0.70;;;16.60;99.90;;;;;;5033686;28;20215;-69
2022/10/16 07:03:28;;;;;;;0.60;0.60;;;16.50;99.90;;;;;;5034693;28;20288;-68
2022/10/16 07:05:56;;;;;;;0.63;0.63;;;16.50;99.90;;;;;;5033851;28;20205;-68
2022/10/16 07:08:23;;;;;;;0.70;0.70;;;16.60;99.90;;;;;;5038296;28;20224;-71
2022/10/16 07:10:58;;;;;;;1.17;0.80;;;16.60;99.90;;;;;;5044402;28;20287;-69
2022/10/16 07:13:25;;;;;;;0.60;0.60;;;16.70;99.90;;;;;;5036958;28;20196;-70
2022/10/16 07:15:51;;;;;;;2.47;0.90;;;16.70;99.90;;;;;;5040809;28;20200;-69
2022/10/16 07:18:18;;;;;;;0.80;0.80;;;16.80;99.90;;;;;;5042851;28;20216;-69
2022/10/16 07:20:45;;;;;;;1.57;0.90;;;16.80;99.90;;;;;;5037090;28;20196;-69
2022/10/16 07:23:13;;;;;;;0.73;0.73;;;16.80;99.90;;;;;;5036465;28;20212;-70
2022/10/16 07:25:40;;;;;;;1.20;0.93;;;16.80;99.90;;;;;;5035734;28;20204;-68
2022/10/16 07:28:07;;;;;;;0.50;0.50;;;16.80;99.90;;;;;;5016767;28;20231;-67
2022/10/16 07:30:37;;;;;;;0.93;0.77;;;16.70;99.90;;;;;;5020854;28;20596;-67
2022/10/16 07:33:04;;;;;;;1.03;0.70;;;16.80;99.90;;;;;;5017968;28;20204;-68
2022/10/16 07:35:31;;;;;;;1.60;0.73;;;16.80;99.90;;;;;;5021265;28;20201;-68
2022/10/16 07:37:58;;;;;;;0.70;0.70;;;16.80;99.90;;;;;;5029837;28;20216;-68
2022/10/16 07:40:26;;;;;;;0.60;0.60;;;16.80;99.90;;;;;;5034861;28;20674;-67
2022/10/16 07:42:54;;;;;;;1.10;0.80;;;16.80;99.90;;;;;;5034543;28;20205;-69
2022/10/16 07:45:21;;;;;;;0.67;0.60;;;16.90;99.90;;;;;;5029068;28;20240;-68
2022/10/16 07:47:47;;;;;;;0.80;0.80;;;16.90;99.90;;;;;;5034056;28;20217;-68
2022/10/16 07:50:15;;;;;;;0.80;0.80;;;16.90;99.90;;;;;;5036670;28;20205;-69
2022/10/16 07:52:41;;;;;;;0.80;0.70;;;17.00;99.90;;;;;;5034769;28;20200;-68
2022/10/16 07:55:09;;;;;;;1.13;0.90;;;17.00;99.90;;;;;;5035219;28;20271;-68
2022/10/16 07:57:37;;;;;;;0.77;0.77;;;17.00;99.90;;;;;;5035283;28;20232;-67
2022/10/16 08:00:05;;;;;;;2.27;0.80;;;17.10;99.90;;;;;;5034908;28;20212;-68
2022/10/16 08:02:33;;;;;;;0.67;0.67;;;17.10;99.90;;;;;;5031106;28;20207;-68
2022/10/16 08:04:59;;;;;;;0.90;0.90;;;17.20;99.90;;;;;;5033340;28;20205;-68
2022/10/16 08:07:26;;;;;;;0.93;0.70;;;17.20;99.90;;;;;;5030330;28;20278;-68
2022/10/16 08:09:53;;;;;;;4.07;0.90;;;17.40;99.90;;;;;;5032177;28;20574;-68
2022/10/16 08:12:20;;;;;;;0.60;0.60;;;17.50;99.90;;;;;;5035879;28;20201;-68
2022/10/16 08:14:48;;;;;;;0.70;0.70;;;17.50;99.90;;;;;;5035186;28;20212;-68
2022/10/16 08:17:15;;;;;;;0.70;0.70;;;17.60;99.90;;;;;;5037778;28;20269;-68
2022/10/16 08:19:45;;;;;;;1.03;0.83;;;17.60;99.90;;;;;;5034644;28;20201;-69
2022/10/16 08:22:12;;;;;;;0.70;0.70;;;17.70;99.90;;;;;;5033894;28;20931;-69
2022/10/16 08:24:39;;;;;;;0.83;0.83;;;17.80;99.90;;;;;;5032737;28;20208;-68
2022/10/16 08:27:06;;;;;;;0.90;0.90;;;17.90;99.90;;;;;;5031992;28;20797;-67
2022/10/16 08:29:33;;;;;;;0.97;0.73;;;18.10;99.90;;;;;;5030177;28;20829;-68
2022/10/16 08:32:01;;;;;;;2.43;0.77;;;18.20;99.90;;;;;;5032998;28;20643;-67
2022/10/16 08:34:28;;;;;;;0.70;0.70;;;18.30;99.90;;;;;;5020640;28;20631;-67
2022/10/16 08:36:55;;;;;;;0.80;0.80;;;18.50;99.90;;;;;;5027564;28;20229;-68
2022/10/16 08:39:22;;;;;;;0.70;0.70;;;18.60;99.90;;;;;;5015047;28;20316;-66
2022/10/16 08:42:15;;;;;;;0.70;0.70;;;18.70;99.90;;;;;;5023357;28;20207;-67
2022/10/16 08:45:15;;;;;;;0.77;0.70;;;18.80;99.90;;;;;;5021115;28;20207;-67
2022/10/16 08:47:54;;;;;;;0.63;0.63;;;18.80;99.90;;;;;;5003158;28;20602;-67
2022/10/16 08:50:25;;;;;;;0.73;0.70;;;18.90;99.90;;;;;;5024324;28;20231;-67
2022/10/16 08:52:52;;;;;;;0.83;0.60;;;18.90;99.90;;;;;;5033044;28;20197;-68
2022/10/16 08:55:34;;;;;;;1.40;0.87;;;19.00;99.90;;;;;;5033478;28;20201;-67
2022/10/16 08:58:01;;;;;;;2.47;0.90;;;19.10;99.90;;;;;;5036589;28;20319;-66
2022/10/16 09:00:29;;;;;;;0.57;0.57;;;19.30;99.90;;;;;;5034018;28;20200;-67
2022/10/16 09:03:05;;;;;;;0.80;0.80;;;19.40;99.90;;;;;;5032640;28;20208;-67
2022/10/16 09:06:01;;;;;;;0.80;0.80;;;19.50;99.90;;;;;;5029901;28;20296;-66
2022/10/16 09:08:38;;;;;;;0.60;0.60;;;19.70;99.90;;;;;;5026948;28;20220;-67
2022/10/16 09:11:14;;;;;;;0.80;0.80;;;19.90;99.90;;;;;;5030958;28;20204;-67
2022/10/16 09:13:51;;;;;;;0.80;0.80;;;20.10;99.90;;;;;;5019347;28;20207;-68
2022/10/16 09:16:22;;;;;;;0.60;0.60;;;20.50;99.90;;;;;;5023666;28;20686;-68
2022/10/16 09:18:57;;;;;;;0.60;0.60;;;20.80;99.90;;;;;;5026302;28;20267;-68
2022/10/16 09:21:27;;;;;;;0.60;0.60;;;21.00;99.90;;;;;;5031407;28;20203;-67
2022/10/16 09:23:57;;;;;;;0.60;0.60;;;21.30;99.90;;;;;;5035528;28;20203;-68
2022/10/16 09:26:24;;;;;;;0.77;0.73;;;21.70;99.90;;;;;;5033518;28;20205;-68
2022/10/16 09:28:54;;;;;;;0.77;0.77;;;22.00;99.90;;;;;;5034343;28;20209;-69
2022/10/16 09:31:22;;;;;;;0.77;0.70;;;22.40;99.90;;;;;;5032128;28;20201;-69
2022/10/16 09:33:55;;;;;;;0.70;0.63;;;22.70;99.90;;;;;;5032388;28;20201;-69
2022/10/16 09:36:23;;;;;;;0.67;0.67;;;22.60;99.90;;;;;;5031742;28;20219;-69
2022/10/16 09:38:50;;;;;;;0.70;0.67;;;22.40;99.90;;;;;;5032067;28;20236;-68
2022/10/16 09:41:20;;;;;;;0.63;0.63;;;22.30;99.90;;;;;;5031840;28;20197;-68
2022/10/16 09:43:55;;;;;;;0.50;0.50;;;22.40;99.90;;;;;;5032471;28;20205;-69
2022/10/16 09:46:30;;;;;;;0.63;0.63;;;22.40;99.90;;;;;;5031996;28;20287;-68
2022/10/16 09:49:00;;;;;;;0.53;0.50;;;22.40;99.90;;;;;;5031825;28;20738;-69
2022/10/16 09:51:29;;;;;;;0.70;0.70;;;22.50;99.90;;;;;;5033001;28;20201;-69
2022/10/16 09:53:58;;;;;;;0.70;0.70;;;22.50;99.90;;;;;;5031564;28;20238;-69
2022/10/16 09:56:28;;;;;;;0.77;0.77;;;22.40;99.90;;;;;;5031734;28;20204;-69
2022/10/16 09:58:56;;;;;;;0.80;0.80;;;22.40;99.90;;;;;;5031669;28;20320;-70
2022/10/16 10:01:27;;;;;;;0.53;0.50;;;22.40;99.90;;;;;;5031559;28;20215;-70
2022/10/16 10:04:00;;;;;;;0.50;0.50;;;22.40;99.90;;;;;;5032600;28;20230;-68
2022/10/16 10:06:30;;;;;;;0.60;0.60;;;22.30;99.90;;;;;;5031190;28;20655;-70
2022/10/16 10:09:05;;;;;;;0.50;0.50;;;22.30;99.90;;;;;;5032088;28;20208;-70
2022/10/16 10:11:44;;;;;;;0.60;0.60;;;22.30;99.90;;;;;;5024556;28;20640;-69
2022/10/16 10:14:18;;;;;;;0.53;0.53;;;22.30;99.90;;;;;;5029249;28;20200;-69
2022/10/16 10:16:45;;;;;;;0.40;0.40;;;22.30;99.90;;;;;;5021482;28;20207;-68
2022/10/16 10:19:17;;;;;;;0.70;0.70;;;22.30;99.90;;;;;;5031389;28;20226;-69
2022/10/16 10:21:44;;;;;;;0.70;0.70;;;22.30;99.90;;;;;;5030673;28;20291;-69
2022/10/16 10:24:17;;;;;;;0.40;0.40;;;22.30;99.90;;;;;;5028032;28;20668;-69
2022/10/16 10:26:56;;;;;;;0.70;0.70;;;22.30;99.90;;;;;;5026821;28;20951;-69
2022/10/16 10:29:35;;;;;;;0.80;0.70;;;22.40;99.90;;;;;;5021124;28;20232;-70
2022/10/16 10:32:12;;;;;;;0.70;0.70;;;22.50;99.90;;;;;;5017427;28;20205;-70
2022/10/16 10:34:56;;;;;;;0.50;0.50;;;22.60;99.90;;;;;;5021325;28;20201;-68
2022/10/16 10:37:45;;;;;;;0.70;0.70;;;22.70;99.90;;;;;;5022203;28;20225;-69
2022/10/16 10:40:23;;;;;;;0.60;0.60;;;22.90;99.90;;;;;;5026879;28;20301;-68
2022/10/16 10:42:56;;;;;;;0.53;0.53;;;23.20;99.90;;;;;;5025152;28;20200;-69
2022/10/16 10:45:28;;;;;;;0.80;0.80;;;23.30;99.90;;;;;;5022617;28;20560;-68
2022/10/16 10:48:18;;;;;;;0.70;0.70;;;23.40;99.90;;;;;;5039888;28;20771;-69
2022/10/16 10:50:51;;;;;;;0.97;0.67;;;23.30;99.90;;;;;;5041642;28;20283;-68
2022/10/16 10:53:30;;;;;;;0.77;0.77;;;23.30;99.90;;;;;;5032274;28;20205;-67
2022/10/16 10:56:08;;;;;;;0.50;0.50;;;23.30;99.90;;;;;;5031504;28;20209;-70
2022/10/16 10:59:10;;;;;;;0.80;0.80;;;23.20;99.90;;;;;;5033766;28;20325;-68
2022/10/16 11:01:45;;;;;;;0.67;0.67;;;23.20;99.90;;;;;;5029409;28;20208;-70
2022/10/16 11:04:37;;;;;;;0.70;0.63;;;23.20;99.90;;;;;;5020184;28;20205;-70
2022/10/16 11:07:08;;;;;;;0.50;0.50;;;23.20;99.90;;;;;;5031980;28;20593;-68
2022/10/16 11:09:39;;;;;;;0.50;0.50;;;23.20;99.90;;;;;;5025847;28;20189;-69
2022/10/16 11:12:13;;;;;;;1.33;0.70;;;23.30;99.90;;;;;;5025790;28;20196;-69
2022/10/16 11:14:43;;;;;;;0.87;0.70;;;23.60;99.90;;;;;;5030506;28;20196;-69
2022/10/16 11:17:14;;;;;;;0.57;0.57;;;23.60;99.90;;;;;;5034200;28;20216;-69
2022/10/16 11:19:47;;;;;;;0.60;0.60;;;23.60;99.90;;;;;;5033524;28;20234;-69
2022/10/16 11:22:20;;;;;;;0.87;0.87;;;23.60;99.90;;;;;;5024011;28;20697;-71
2022/10/16 11:24:54;;;;;;;0.80;0.80;;;23.60;99.90;;;;;;5025337;28;20205;-69
2022/10/16 11:27:28;;;;;;;1.50;0.70;;;23.70;99.90;;;;;;5022697;28;20229;-68
2022/10/16 11:29:59;;;;;;;0.50;0.50;;;23.80;99.90;;;;;;5027112;28;20207;-68
2022/10/16 11:32:34;;;;;;;0.50;0.50;;;23.90;99.90;;;;;;5025538;28;20197;-70
2022/10/16 11:35:11;;;;;;;0.70;0.70;;;23.90;99.90;;;;;;5032413;28;20209;-69
2022/10/16 11:37:44;;;;;;;1.17;0.77;;;23.90;99.90;;;;;;5037013;28;20220;-68
2022/10/16 11:40:22;;;;;;;0.47;0.47;;;23.90;99.90;;;;;;5029991;28;20216;-68
2022/10/16 11:42:55;;;;;;;0.57;0.57;;;23.70;99.90;;;;;;5024795;28;20690;-69
2022/10/16 11:45:30;;;;;;;0.60;0.60;;;23.70;99.90;;;;;;5022004;28;20212;-68
2022/10/16 11:48:03;;;;;;;0.90;0.50;;;23.70;99.90;;;;;;5022922;28;20231;-68
2022/10/16 11:50:35;;;;;;;0.67;0.50;;;23.70;99.90;;;;;;5024395;28;20636;-69
2022/10/16 11:53:14;;;;;;;0.60;0.60;;;23.80;99.90;;;;;;5025761;28;20208;-69
2022/10/16 11:55:43;;;;;;;0.50;0.50;;;23.90;99.90;;;;;;5027201;28;20226;-69
2022/10/16 11:58:21;;;;;;;0.67;0.67;;;24.00;99.90;;;;;;5024802;28;20735;-68
2022/10/16 12:00:58;;;;;;;0.70;0.70;;;24.00;99.90;;;;;;5022956;28;20250;-68
2022/10/16 12:03:30;;;;;;;0.53;0.53;;;24.10;99.90;;;;;;5015167;28;20959;-69
2022/10/16 12:06:18;;;;;;;0.73;0.57;;;24.10;99.90;;;;;;5021173;28;20228;-70
2022/10/16 12:08:46;;;;;;;0.70;0.70;;;24.10;99.90;;;;;;5025906;28;20263;-67
2022/10/16 12:11:31;;;;;;;0.70;0.70;;;24.00;99.90;;;;;;5027596;28;20234;-70
2022/10/16 12:14:19;;;;;;;0.70;0.70;;;24.10;99.90;;;;;;5032389;28;20216;-70
2022/10/16 12:16:54;;;;;;;0.47;0.47;;;24.10;99.90;;;;;;5024917;28;20202;-70
2022/10/16 12:19:22;;;;;;;0.53;0.53;;;24.30;99.90;;;;;;5025346;28;20239;-71
2022/10/16 12:21:51;;;;;;;0.60;0.60;;;24.40;99.90;;;;;;5024161;28;20204;-68
2022/10/16 12:24:34;;;;;;;0.50;0.50;;;24.50;99.90;;;;;;5030757;28;20296;-70
2022/10/16 12:27:02;;;;;;;0.50;0.50;;;24.40;99.90;;;;;;5038268;28;21667;-69
2022/10/16 12:29:38;;;;;;;0.60;0.60;;;24.40;99.90;;;;;;5024289;28;20203;-68
2022/10/16 12:32:21;;;;;;;0.98;0.50;;;24.40;99.90;;;;;;5021044;28;20881;-69
2022/10/16 12:34:49;;;;;;;0.60;0.60;;;24.40;99.90;;;;;;5013798;28;20201;-68
2022/10/16 12:37:22;;;;;;;0.60;0.60;;;24.40;99.90;;;;;;5019036;28;20231;-69
2022/10/16 12:39:51;;;;;;;0.50;0.50;;;24.40;99.90;;;;;;5024189;28;20224;-69
2022/10/16 12:42:24;;;;;;;0.70;0.70;;;24.40;99.90;;;;;;5019233;28;20605;-68
2022/10/16 12:44:51;;;;;;;0.50;0.50;;;24.30;99.90;;;;;;5025309;28;20201;-68
2022/10/16 12:47:23;;;;;;;0.50;0.50;;;24.30;99.90;;;;;;5019675;28;20228;-66
2022/10/16 12:49:52;;;;;;;0.60;0.60;;;24.20;99.90;;;;;;5025957;28;20211;-67
2022/10/16 12:52:28;;;;;;;0.30;0.30;;;24.20;99.90;;;;;;5022521;28;20219;-69
2022/10/16 12:55:00;;;;;;;0.80;0.80;;;24.20;99.90;;;;;;5019533;28;20204;-68
2022/10/16 12:57:44;;;;;;;0.60;0.60;;;24.20;99.90;;;;;;5025287;28;20228;-69
2022/10/16 13:00:21;;;;;;;0.60;0.60;;;24.20;99.90;;;;;;5038091;28;20213;-68
2022/10/16 13:03:05;;;;;;;0.93;0.90;;;24.20;99.90;;;;;;5030834;28;20287;-69
2022/10/16 13:05:46;;;;;;;0.85;0.85;;;24.30;99.90;;;;;;5032636;28;20570;-68